Aviation Digital Data Service (ADDS)

Output produced by TAFs form (1131 UTC 19 January 2018)
found at http://www.aviationweather.gov/adds/tafs/
 
RJCM 191100Z 00000KT 4500 -SHSN FEW008 SCT015 BKN020 M06/M08 Q1018
TAF RJCM 191117Z 1912/2018 21005KT 9999 FEW008 BKN020 
     TEMPO 1912/1914 3000 -SHSN